sensor_id;sensor_type;location;lat;lon;timestamp;P1;durP1;ratioP1;P2;durP2;ratioP2
20095;SDS011;10207;50.942;6.900;2022-07-06T00:01:48;4.40;;;1.23;;
20095;SDS011;10207;50.942;6.900;2022-07-06T00:04:14;4.07;;;1.20;;
20095;SDS011;10207;50.942;6.900;2022-07-06T00:06:39;2.67;;;1.00;;
20095;SDS011;10207;50.942;6.900;2022-07-06T00:09:05;5.68;;;1.42;;
20095;SDS011;10207;50.942;6.900;2022-07-06T00:11:31;4.63;;;1.40;;
20095;SDS011;10207;50.942;6.900;2022-07-06T00:13:57;2.97;;;1.40;;
20095;SDS011;10207;50.942;6.900;2022-07-06T00:16:22;3.20;;;1.33;;
20095;SDS011;10207;50.942;6.900;2022-07-06T00:18:48;5.43;;;1.70;;
20095;SDS011;10207;50.942;6.900;2022-07-06T00:21:14;6.30;;;2.17;;
20095;SDS011;10207;50.942;6.900;2022-07-06T00:23:40;5.75;;;1.60;;
20095;SDS011;10207;50.942;6.900;2022-07-06T00:26:06;4.47;;;1.48;;
20095;SDS011;10207;50.942;6.900;2022-07-06T00:28:31;5.47;;;1.30;;
20095;SDS011;10207;50.942;6.900;2022-07-06T00:30:57;4.78;;;1.73;;
20095;SDS011;10207;50.942;6.900;2022-07-06T00:33:23;3.58;;;1.48;;
20095;SDS011;10207;50.942;6.900;2022-07-06T00:35:49;5.82;;;1.75;;
20095;SDS011;10207;50.942;6.900;2022-07-06T00:38:15;4.55;;;1.80;;
20095;SDS011;10207;50.942;6.900;2022-07-06T00:40:41;4.10;;;1.70;;
20095;SDS011;10207;50.942;6.900;2022-07-06T00:43:06;3.05;;;1.60;;
20095;SDS011;10207;50.942;6.900;2022-07-06T00:45:33;4.75;;;1.58;;
20095;SDS011;10207;50.942;6.900;2022-07-06T00:47:59;4.57;;;1.65;;
20095;SDS011;10207;50.942;6.900;2022-07-06T00:50:25;6.90;;;1.90;;
20095;SDS011;10207;50.942;6.900;2022-07-06T00:52:51;4.90;;;1.77;;
20095;SDS011;10207;50.942;6.900;2022-07-06T00:55:18;4.25;;;1.83;;
20095;SDS011;10207;50.942;6.900;2022-07-06T00:57:44;4.20;;;1.90;;
20095;SDS011;10207;50.942;6.900;2022-07-06T01:00:11;3.53;;;1.50;;
20095;SDS011;10207;50.942;6.900;2022-07-06T01:02:37;4.07;;;1.58;;
20095;SDS011;10207;50.942;6.900;2022-07-06T01:05:03;4.25;;;2.00;;
20095;SDS011;10207;50.942;6.900;2022-07-06T01:07:29;5.57;;;2.22;;
20095;SDS011;10207;50.942;6.900;2022-07-06T01:09:55;5.85;;;2.15;;
20095;SDS011;10207;50.942;6.900;2022-07-06T01:12:21;4.10;;;1.75;;
20095;SDS011;10207;50.942;6.900;2022-07-06T01:14:48;3.92;;;1.90;;
20095;SDS011;10207;50.942;6.900;2022-07-06T01:17:15;4.35;;;1.85;;
20095;SDS011;10207;50.942;6.900;2022-07-06T01:19:41;7.47;;;2.65;;
20095;SDS011;10207;50.942;6.900;2022-07-06T01:22:06;4.15;;;2.10;;
20095;SDS011;10207;50.942;6.900;2022-07-06T01:24:36;4.10;;;2.55;;
20095;SDS011;10207;50.942;6.900;2022-07-06T01:27:05;5.55;;;2.10;;
20095;SDS011;10207;50.942;6.900;2022-07-06T01:29:31;6.38;;;2.15;;
20095;SDS011;10207;50.942;6.900;2022-07-06T01:31:57;7.53;;;2.28;;
20095;SDS011;10207;50.942;6.900;2022-07-06T01:34:25;7.10;;;2.22;;
20095;SDS011;10207;50.942;6.900;2022-07-06T01:36:50;6.03;;;2.53;;
20095;SDS011;10207;50.942;6.900;2022-07-06T01:39:18;3.28;;;2.10;;
20095;SDS011;10207;50.942;6.900;2022-07-06T01:41:44;3.60;;;2.20;;
20095;SDS011;10207;50.942;6.900;2022-07-06T01:44:10;5.07;;;2.35;;
20095;SDS011;10207;50.942;6.900;2022-07-06T01:46:37;4.55;;;2.08;;
20095;SDS011;10207;50.942;6.900;2022-07-06T01:49:03;9.80;;;2.42;;
20095;SDS011;10207;50.942;6.900;2022-07-06T01:51:30;7.32;;;3.45;;
20095;SDS011;10207;50.942;6.900;2022-07-06T01:53:57;7.50;;;2.25;;
20095;SDS011;10207;50.942;6.900;2022-07-06T01:56:24;6.45;;;2.60;;
20095;SDS011;10207;50.942;6.900;2022-07-06T01:58:53;2.70;;;2.10;;
20095;SDS011;10207;50.942;6.900;2022-07-06T02:01:21;4.50;;;2.60;;
20095;SDS011;10207;50.942;6.900;2022-07-06T02:03:47;4.65;;;2.28;;
20095;SDS011;10207;50.942;6.900;2022-07-06T02:06:13;8.38;;;2.30;;
20095;SDS011;10207;50.942;6.900;2022-07-06T02:08:39;7.95;;;3.08;;
20095;SDS011;10207;50.942;6.900;2022-07-06T02:11:06;5.97;;;2.88;;
20095;SDS011;10207;50.942;6.900;2022-07-06T02:13:33;6.03;;;2.45;;
20095;SDS011;10207;50.942;6.900;2022-07-06T02:16:00;6.88;;;2.92;;
20095;SDS011;10207;50.942;6.900;2022-07-06T02:18:26;5.90;;;2.53;;
20095;SDS011;10207;50.942;6.900;2022-07-06T02:20:52;6.22;;;3.08;;
20095;SDS011;10207;50.942;6.900;2022-07-06T02:23:18;4.70;;;2.70;;
20095;SDS011;10207;50.942;6.900;2022-07-06T02:25:44;3.90;;;2.33;;
20095;SDS011;10207;50.942;6.900;2022-07-06T02:28:10;8.32;;;2.28;;
20095;SDS011;10207;50.942;6.900;2022-07-06T02:30:37;4.80;;;2.00;;
20095;SDS011;10207;50.942;6.900;2022-07-06T02:33:03;3.13;;;1.75;;
20095;SDS011;10207;50.942;6.900;2022-07-06T02:35:29;3.17;;;2.20;;
20095;SDS011;10207;50.942;6.900;2022-07-06T02:37:55;7.22;;;2.25;;
20095;SDS011;10207;50.942;6.900;2022-07-06T02:40:21;4.15;;;2.13;;
20095;SDS011;10207;50.942;6.900;2022-07-06T02:42:47;7.72;;;2.17;;
20095;SDS011;10207;50.942;6.900;2022-07-06T02:45:13;4.22;;;2.05;;
20095;SDS011;10207;50.942;6.900;2022-07-06T02:47:39;5.68;;;2.40;;
20095;SDS011;10207;50.942;6.900;2022-07-06T02:50:05;5.90;;;2.38;;
20095;SDS011;10207;50.942;6.900;2022-07-06T02:52:31;6.30;;;2.55;;
20095;SDS011;10207;50.942;6.900;2022-07-06T02:54:59;6.05;;;2.72;;
20095;SDS011;10207;50.942;6.900;2022-07-06T02:57:26;3.22;;;2.67;;
20095;SDS011;10207;50.942;6.900;2022-07-06T02:59:52;4.72;;;2.38;;
20095;SDS011;10207;50.942;6.900;2022-07-06T03:02:18;4.45;;;2.10;;
20095;SDS011;10207;50.942;6.900;2022-07-06T03:04:44;9.05;;;2.50;;
20095;SDS011;10207;50.942;6.900;2022-07-06T03:07:10;5.05;;;2.35;;
20095;SDS011;10207;50.942;6.900;2022-07-06T03:09:37;5.97;;;2.33;;
20095;SDS011;10207;50.942;6.900;2022-07-06T03:12:02;5.03;;;2.10;;
20095;SDS011;10207;50.942;6.900;2022-07-06T03:14:30;5.05;;;2.00;;
20095;SDS011;10207;50.942;6.900;2022-07-06T03:16:56;3.20;;;2.20;;
20095;SDS011;10207;50.942;6.900;2022-07-06T03:19:22;7.50;;;2.40;;
20095;SDS011;10207;50.942;6.900;2022-07-06T03:21:48;3.72;;;2.38;;
20095;SDS011;10207;50.942;6.900;2022-07-06T03:24:14;8.50;;;2.28;;
20095;SDS011;10207;50.942;6.900;2022-07-06T03:26:40;7.82;;;2.60;;
20095;SDS011;10207;50.942;6.900;2022-07-06T03:29:06;5.65;;;2.50;;
20095;SDS011;10207;50.942;6.900;2022-07-06T03:31:32;4.82;;;2.17;;
20095;SDS011;10207;50.942;6.900;2022-07-06T03:33:57;3.88;;;2.60;;
20095;SDS011;10207;50.942;6.900;2022-07-06T03:36:24;3.20;;;2.08;;
20095;SDS011;10207;50.942;6.900;2022-07-06T03:38:50;3.97;;;2.15;;
20095;SDS011;10207;50.942;6.900;2022-07-06T03:41:17;5.60;;;2.35;;
20095;SDS011;10207;50.942;6.900;2022-07-06T03:43:43;7.00;;;2.25;;
20095;SDS011;10207;50.942;6.900;2022-07-06T03:46:09;7.85;;;2.53;;
20095;SDS011;10207;50.942;6.900;2022-07-06T03:48:35;5.32;;;2.00;;
20095;SDS011;10207;50.942;6.900;2022-07-06T03:51:03;4.43;;;2.20;;
20095;SDS011;10207;50.942;6.900;2022-07-06T03:53:28;6.10;;;2.03;;
20095;SDS011;10207;50.942;6.900;2022-07-06T03:55:54;8.50;;;2.60;;
20095;SDS011;10207;50.942;6.900;2022-07-06T03:58:40;3.70;;;2.33;;
20095;SDS011;10207;50.942;6.900;2022-07-06T04:01:06;3.88;;;2.50;;
20095;SDS011;10207;50.942;6.900;2022-07-06T04:03:32;5.70;;;2.35;;
20095;SDS011;10207;50.942;6.900;2022-07-06T04:05:58;6.90;;;2.00;;
20095;SDS011;10207;50.942;6.900;2022-07-06T04:08:24;6.65;;;2.65;;
20095;SDS011;10207;50.942;6.900;2022-07-06T04:10:55;3.97;;;2.45;;
20095;SDS011;10207;50.942;6.900;2022-07-06T04:13:21;9.20;;;2.63;;
20095;SDS011;10207;50.942;6.900;2022-07-06T04:15:47;7.00;;;3.78;;
20095;SDS011;10207;50.942;6.900;2022-07-06T04:18:14;6.13;;;2.75;;
20095;SDS011;10207;50.942;6.900;2022-07-06T04:20:46;6.50;;;2.60;;
20095;SDS011;10207;50.942;6.900;2022-07-06T04:23:13;5.35;;;2.95;;
20095;SDS011;10207;50.942;6.900;2022-07-06T04:25:39;4.03;;;2.05;;
20095;SDS011;10207;50.942;6.900;2022-07-06T04:28:05;5.95;;;2.75;;
20095;SDS011;10207;50.942;6.900;2022-07-06T04:30:32;8.27;;;2.65;;
20095;SDS011;10207;50.942;6.900;2022-07-06T04:33:00;5.85;;;2.15;;
20095;SDS011;10207;50.942;6.900;2022-07-06T04:35:29;5.07;;;2.15;;
20095;SDS011;10207;50.942;6.900;2022-07-06T04:37:55;9.23;;;2.65;;
20095;SDS011;10207;50.942;6.900;2022-07-06T04:40:22;7.13;;;2.50;;
20095;SDS011;10207;50.942;6.900;2022-07-06T04:42:51;7.35;;;2.47;;
20095;SDS011;10207;50.942;6.900;2022-07-06T04:45:18;7.60;;;2.70;;
20095;SDS011;10207;50.942;6.900;2022-07-06T04:47:44;7.80;;;2.47;;
20095;SDS011;10207;50.942;6.900;2022-07-06T04:50:12;5.95;;;2.72;;
20095;SDS011;10207;50.942;6.900;2022-07-06T04:52:39;9.65;;;2.55;;
20095;SDS011;10207;50.942;6.900;2022-07-06T04:55:05;8.88;;;2.70;;
20095;SDS011;10207;50.942;6.900;2022-07-06T04:57:32;20.83;;;4.00;;
20095;SDS011;10207;50.942;6.900;2022-07-06T04:59:59;8.80;;;2.50;;
20095;SDS011;10207;50.942;6.900;2022-07-06T05:02:24;6.10;;;2.03;;
20095;SDS011;10207;50.942;6.900;2022-07-06T05:04:50;4.32;;;2.50;;
20095;SDS011;10207;50.942;6.900;2022-07-06T05:07:18;9.52;;;3.15;;
20095;SDS011;10207;50.942;6.900;2022-07-06T05:09:44;5.30;;;2.22;;
20095;SDS011;10207;50.942;6.900;2022-07-06T05:12:10;6.60;;;2.72;;
20095;SDS011;10207;50.942;6.900;2022-07-06T05:14:36;10.38;;;3.00;;
20095;SDS011;10207;50.942;6.900;2022-07-06T05:17:02;6.10;;;2.55;;
20095;SDS011;10207;50.942;6.900;2022-07-06T05:19:28;6.13;;;2.47;;
20095;SDS011;10207;50.942;6.900;2022-07-06T05:21:55;6.97;;;2.45;;
20095;SDS011;10207;50.942;6.900;2022-07-06T05:24:21;6.15;;;2.25;;
20095;SDS011;10207;50.942;6.900;2022-07-06T05:26:47;5.55;;;1.98;;
20095;SDS011;10207;50.942;6.900;2022-07-06T05:29:13;4.82;;;2.47;;
20095;SDS011;10207;50.942;6.900;2022-07-06T05:31:39;9.38;;;2.28;;
20095;SDS011;10207;50.942;6.900;2022-07-06T05:34:05;7.18;;;1.98;;
20095;SDS011;10207;50.942;6.900;2022-07-06T05:36:32;5.18;;;1.50;;
20095;SDS011;10207;50.942;6.900;2022-07-06T05:38:58;10.38;;;1.77;;
20095;SDS011;10207;50.942;6.900;2022-07-06T05:41:24;8.00;;;1.80;;
20095;SDS011;10207;50.942;6.900;2022-07-06T05:43:50;4.80;;;2.20;;
20095;SDS011;10207;50.942;6.900;2022-07-06T05:46:16;8.02;;;1.67;;
20095;SDS011;10207;50.942;6.900;2022-07-06T05:48:41;6.90;;;1.80;;
20095;SDS011;10207;50.942;6.900;2022-07-06T05:51:26;57.17;;;6.75;;
20095;SDS011;10207;50.942;6.900;2022-07-06T05:53:52;7.60;;;1.42;;
20095;SDS011;10207;50.942;6.900;2022-07-06T05:56:19;5.40;;;1.45;;
20095;SDS011;10207;50.942;6.900;2022-07-06T05:58:46;4.57;;;1.33;;
20095;SDS011;10207;50.942;6.900;2022-07-06T06:01:12;7.85;;;1.42;;
20095;SDS011;10207;50.942;6.900;2022-07-06T06:03:41;9.35;;;1.92;;
20095;SDS011;10207;50.942;6.900;2022-07-06T06:06:07;6.65;;;1.30;;
20095;SDS011;10207;50.942;6.900;2022-07-06T06:08:33;4.93;;;1.40;;
20095;SDS011;10207;50.942;6.900;2022-07-06T06:10:59;3.65;;;1.05;;
20095;SDS011;10207;50.942;6.900;2022-07-06T06:13:27;3.40;;;1.17;;
20095;SDS011;10207;50.942;6.900;2022-07-06T06:15:53;6.50;;;1.40;;
20095;SDS011;10207;50.942;6.900;2022-07-06T06:18:18;3.75;;;1.27;;
20095;SDS011;10207;50.942;6.900;2022-07-06T06:20:45;5.03;;;1.05;;
20095;SDS011;10207;50.942;6.900;2022-07-06T06:23:11;5.13;;;1.30;;
20095;SDS011;10207;50.942;6.900;2022-07-06T06:25:37;2.63;;;0.88;;
20095;SDS011;10207;50.942;6.900;2022-07-06T06:28:04;3.88;;;0.98;;
20095;SDS011;10207;50.942;6.900;2022-07-06T06:30:31;6.43;;;2.03;;
20095;SDS011;10207;50.942;6.900;2022-07-06T06:33:31;3.97;;;1.13;;
20095;SDS011;10207;50.942;6.900;2022-07-06T06:35:50;7.05;;;1.13;;
20095;SDS011;10207;50.942;6.900;2022-07-06T06:38:17;4.95;;;1.60;;
20095;SDS011;10207;50.942;6.900;2022-07-06T06:40:43;2.95;;;0.90;;
20095;SDS011;10207;50.942;6.900;2022-07-06T06:43:09;4.78;;;1.10;;
20095;SDS011;10207;50.942;6.900;2022-07-06T06:45:42;4.38;;;0.80;;
20095;SDS011;10207;50.942;6.900;2022-07-06T06:48:10;5.78;;;1.05;;
20095;SDS011;10207;50.942;6.900;2022-07-06T06:50:35;3.33;;;0.68;;
20095;SDS011;10207;50.942;6.900;2022-07-06T06:53:02;7.43;;;0.90;;
20095;SDS011;10207;50.942;6.900;2022-07-06T06:55:28;5.57;;;0.90;;
20095;SDS011;10207;50.942;6.900;2022-07-06T06:57:53;2.03;;;0.60;;
20095;SDS011;10207;50.942;6.900;2022-07-06T07:00:19;2.53;;;0.93;;
20095;SDS011;10207;50.942;6.900;2022-07-06T07:02:45;5.05;;;1.00;;
20095;SDS011;10207;50.942;6.900;2022-07-06T07:05:12;2.97;;;1.33;;
20095;SDS011;10207;50.942;6.900;2022-07-06T07:07:38;3.30;;;0.50;;
20095;SDS011;10207;50.942;6.900;2022-07-06T07:10:04;3.03;;;0.73;;
20095;SDS011;10207;50.942;6.900;2022-07-06T07:12:30;3.35;;;0.90;;
20095;SDS011;10207;50.942;6.900;2022-07-06T07:14:56;4.35;;;1.40;;
20095;SDS011;10207;50.942;6.900;2022-07-06T07:17:22;4.03;;;0.57;;
20095;SDS011;10207;50.942;6.900;2022-07-06T07:19:47;4.97;;;1.10;;
20095;SDS011;10207;50.942;6.900;2022-07-06T07:22:14;5.32;;;1.30;;
20095;SDS011;10207;50.942;6.900;2022-07-06T07:24:39;8.55;;;1.10;;
20095;SDS011;10207;50.942;6.900;2022-07-06T07:27:05;5.72;;;1.27;;
20095;SDS011;10207;50.942;6.900;2022-07-06T07:29:31;9.23;;;2.22;;
20095;SDS011;10207;50.942;6.900;2022-07-06T07:31:57;7.45;;;1.23;;
20095;SDS011;10207;50.942;6.900;2022-07-06T07:34:23;5.93;;;1.15;;
20095;SDS011;10207;50.942;6.900;2022-07-06T07:36:48;8.18;;;1.40;;
20095;SDS011;10207;50.942;6.900;2022-07-06T07:39:14;11.00;;;1.73;;
20095;SDS011;10207;50.942;6.900;2022-07-06T07:41:40;4.25;;;1.38;;
20095;SDS011;10207;50.942;6.900;2022-07-06T07:44:06;6.97;;;1.48;;
20095;SDS011;10207;50.942;6.900;2022-07-06T07:46:31;1.77;;;0.82;;
20095;SDS011;10207;50.942;6.900;2022-07-06T07:48:57;2.10;;;0.68;;
20095;SDS011;10207;50.942;6.900;2022-07-06T07:51:24;8.57;;;1.00;;
20095;SDS011;10207;50.942;6.900;2022-07-06T07:53:49;4.18;;;0.73;;
20095;SDS011;10207;50.942;6.900;2022-07-06T07:56:15;6.90;;;0.77;;
20095;SDS011;10207;50.942;6.900;2022-07-06T07:58:41;4.35;;;1.35;;
20095;SDS011;10207;50.942;6.900;2022-07-06T08:01:07;3.20;;;0.90;;
20095;SDS011;10207;50.942;6.900;2022-07-06T08:03:32;5.82;;;0.70;;
20095;SDS011;10207;50.942;6.900;2022-07-06T08:05:58;2.83;;;0.77;;
20095;SDS011;10207;50.942;6.900;2022-07-06T08:08:24;3.00;;;0.73;;
20095;SDS011;10207;50.942;6.900;2022-07-06T08:10:50;2.63;;;0.60;;
20095;SDS011;10207;50.942;6.900;2022-07-06T08:13:15;2.15;;;0.60;;
20095;SDS011;10207;50.942;6.900;2022-07-06T08:15:41;5.35;;;0.50;;
20095;SDS011;10207;50.942;6.900;2022-07-06T08:18:08;4.10;;;0.50;;
20095;SDS011;10207;50.942;6.900;2022-07-06T08:20:35;1.95;;;0.52;;
20095;SDS011;10207;50.942;6.900;2022-07-06T08:23:01;3.13;;;0.40;;
20095;SDS011;10207;50.942;6.900;2022-07-06T08:25:26;2.85;;;0.43;;
20095;SDS011;10207;50.942;6.900;2022-07-06T08:27:52;2.78;;;0.50;;
20095;SDS011;10207;50.942;6.900;2022-07-06T08:30:18;3.92;;;0.68;;
20095;SDS011;10207;50.942;6.900;2022-07-06T08:32:44;2.78;;;0.50;;
20095;SDS011;10207;50.942;6.900;2022-07-06T08:35:10;2.10;;;0.75;;
20095;SDS011;10207;50.942;6.900;2022-07-06T08:37:36;3.40;;;0.50;;
20095;SDS011;10207;50.942;6.900;2022-07-06T08:40:02;2.70;;;0.30;;
20095;SDS011;10207;50.942;6.900;2022-07-06T08:42:32;3.65;;;0.40;;
20095;SDS011;10207;50.942;6.900;2022-07-06T08:44:58;2.08;;;0.65;;
20095;SDS011;10207;50.942;6.900;2022-07-06T08:47:24;5.25;;;0.50;;
20095;SDS011;10207;50.942;6.900;2022-07-06T08:49:51;1.15;;;0.55;;
20095;SDS011;10207;50.942;6.900;2022-07-06T08:52:17;3.45;;;0.60;;
20095;SDS011;10207;50.942;6.900;2022-07-06T08:54:43;2.75;;;0.40;;
20095;SDS011;10207;50.942;6.900;2022-07-06T08:57:09;5.00;;;0.65;;
20095;SDS011;10207;50.942;6.900;2022-07-06T08:59:34;3.25;;;0.60;;
20095;SDS011;10207;50.942;6.900;2022-07-06T09:02:01;3.33;;;0.95;;
20095;SDS011;10207;50.942;6.900;2022-07-06T09:04:28;2.65;;;0.60;;
20095;SDS011;10207;50.942;6.900;2022-07-06T09:06:55;2.38;;;0.75;;
20095;SDS011;10207;50.942;6.900;2022-07-06T09:09:23;3.83;;;0.65;;
20095;SDS011;10207;50.942;6.900;2022-07-06T09:11:49;1.50;;;0.43;;
20095;SDS011;10207;50.942;6.900;2022-07-06T09:14:15;2.90;;;0.50;;
20095;SDS011;10207;50.942;6.900;2022-07-06T09:16:41;1.70;;;0.50;;
20095;SDS011;10207;50.942;6.900;2022-07-06T09:19:07;1.40;;;0.40;;
20095;SDS011;10207;50.942;6.900;2022-07-06T09:21:33;2.45;;;0.60;;
20095;SDS011;10207;50.942;6.900;2022-07-06T09:24:02;1.67;;;0.50;;
20095;SDS011;10207;50.942;6.900;2022-07-06T09:26:30;4.18;;;2.17;;
20095;SDS011;10207;50.942;6.900;2022-07-06T09:28:56;4.03;;;0.20;;
20095;SDS011;10207;50.942;6.900;2022-07-06T09:31:22;3.40;;;0.50;;
20095;SDS011;10207;50.942;6.900;2022-07-06T09:41:43;28.85;;;2.60;;
20095;SDS011;10207;50.942;6.900;2022-07-06T09:44:09;7.38;;;1.83;;
20095;SDS011;10207;50.942;6.900;2022-07-06T09:46:42;3.40;;;0.60;;
20095;SDS011;10207;50.942;6.900;2022-07-06T09:49:08;3.28;;;0.50;;
20095;SDS011;10207;50.942;6.900;2022-07-06T09:51:37;2.95;;;0.57;;
20095;SDS011;10207;50.942;6.900;2022-07-06T09:54:05;2.33;;;0.50;;
20095;SDS011;10207;50.942;6.900;2022-07-06T09:56:39;3.15;;;0.75;;
20095;SDS011;10207;50.942;6.900;2022-07-06T09:59:10;1.95;;;0.50;;
20095;SDS011;10207;50.942;6.900;2022-07-06T10:01:36;5.35;;;0.63;;
20095;SDS011;10207;50.942;6.900;2022-07-06T10:04:03;2.22;;;0.50;;
20095;SDS011;10207;50.942;6.900;2022-07-06T10:06:29;1.83;;;0.50;;
20095;SDS011;10207;50.942;6.900;2022-07-06T10:08:55;0.80;;;0.28;;
20095;SDS011;10207;50.942;6.900;2022-07-06T10:11:21;3.88;;;0.57;;
20095;SDS011;10207;50.942;6.900;2022-07-06T10:13:48;3.35;;;0.80;;
20095;SDS011;10207;50.942;6.900;2022-07-06T10:16:15;4.05;;;1.25;;
20095;SDS011;10207;50.942;6.900;2022-07-06T10:18:41;0.80;;;0.28;;
20095;SDS011;10207;50.942;6.900;2022-07-06T10:21:07;3.90;;;0.95;;
20095;SDS011;10207;50.942;6.900;2022-07-06T10:23:34;5.97;;;0.82;;
20095;SDS011;10207;50.942;6.900;2022-07-06T10:26:00;0.98;;;0.30;;
20095;SDS011;10207;50.942;6.900;2022-07-06T10:28:27;4.60;;;0.70;;
20095;SDS011;10207;50.942;6.900;2022-07-06T10:30:53;2.17;;;0.38;;
20095;SDS011;10207;50.942;6.900;2022-07-06T10:33:19;1.92;;;0.40;;
20095;SDS011;10207;50.942;6.900;2022-07-06T10:35:45;3.83;;;0.70;;
20095;SDS011;10207;50.942;6.900;2022-07-06T10:38:11;1.52;;;0.45;;
20095;SDS011;10207;50.942;6.900;2022-07-06T10:40:38;3.63;;;0.52;;
20095;SDS011;10207;50.942;6.900;2022-07-06T10:43:22;7.60;;;0.32;;
20095;SDS011;10207;50.942;6.900;2022-07-06T10:50:50;3.60;;;0.60;;
20095;SDS011;10207;50.942;6.900;2022-07-06T10:53:17;1.30;;;0.47;;
20095;SDS011;10207;50.942;6.900;2022-07-06T10:55:44;2.00;;;0.38;;
20095;SDS011;10207;50.942;6.900;2022-07-06T10:58:10;1.88;;;0.30;;
20095;SDS011;10207;50.942;6.900;2022-07-06T11:00:55;4.90;;;0.50;;
20095;SDS011;10207;50.942;6.900;2022-07-06T11:03:30;1.15;;;0.20;;
20095;SDS011;10207;50.942;6.900;2022-07-06T11:06:00;4.57;;;0.85;;
20095;SDS011;10207;50.942;6.900;2022-07-06T11:08:42;2.47;;;0.40;;
20095;SDS011;10207;50.942;6.900;2022-07-06T11:11:12;3.30;;;0.30;;
20095;SDS011;10207;50.942;6.900;2022-07-06T11:16:13;2.88;;;0.47;;
20095;SDS011;10207;50.942;6.900;2022-07-06T11:18:40;5.05;;;0.60;;
20095;SDS011;10207;50.942;6.900;2022-07-06T11:21:16;1.15;;;0.43;;
20095;SDS011;10207;50.942;6.900;2022-07-06T11:23:42;2.15;;;0.60;;
20095;SDS011;10207;50.942;6.900;2022-07-06T11:26:10;2.22;;;0.50;;
20095;SDS011;10207;50.942;6.900;2022-07-06T11:28:37;10.23;;;2.00;;
20095;SDS011;10207;50.942;6.900;2022-07-06T11:31:03;2.95;;;0.93;;
20095;SDS011;10207;50.942;6.900;2022-07-06T11:33:31;1.83;;;0.30;;
20095;SDS011;10207;50.942;6.900;2022-07-06T11:38:39;1.65;;;0.52;;
20095;SDS011;10207;50.942;6.900;2022-07-06T11:41:05;3.53;;;0.60;;
20095;SDS011;10207;50.942;6.900;2022-07-06T11:43:31;3.03;;;0.90;;
20095;SDS011;10207;50.942;6.900;2022-07-06T11:45:57;2.55;;;0.60;;
20095;SDS011;10207;50.942;6.900;2022-07-06T11:48:22;3.45;;;0.52;;
20095;SDS011;10207;50.942;6.900;2022-07-06T11:51:01;2.22;;;0.35;;
20095;SDS011;10207;50.942;6.900;2022-07-06T11:53:26;4.75;;;1.00;;
20095;SDS011;10207;50.942;6.900;2022-07-06T11:55:52;3.58;;;0.60;;
20095;SDS011;10207;50.942;6.900;2022-07-06T11:58:22;1.55;;;0.43;;
20095;SDS011;10207;50.942;6.900;2022-07-06T12:01:07;2.17;;;0.60;;
20095;SDS011;10207;50.942;6.900;2022-07-06T12:03:33;2.00;;;0.50;;
20095;SDS011;10207;50.942;6.900;2022-07-06T12:06:01;3.72;;;0.88;;
20095;SDS011;10207;50.942;6.900;2022-07-06T12:08:27;2.50;;;0.52;;
20095;SDS011;10207;50.942;6.900;2022-07-06T12:10:53;3.58;;;0.57;;
20095;SDS011;10207;50.942;6.900;2022-07-06T12:13:19;5.50;;;0.60;;
20095;SDS011;10207;50.942;6.900;2022-07-06T12:15:45;1.83;;;1.35;;
20095;SDS011;10207;50.942;6.900;2022-07-06T12:18:11;2.85;;;0.77;;
20095;SDS011;10207;50.942;6.900;2022-07-06T12:20:37;0.57;;;0.30;;
20095;SDS011;10207;50.942;6.900;2022-07-06T12:23:06;1.38;;;0.47;;
20095;SDS011;10207;50.942;6.900;2022-07-06T12:25:32;1.95;;;0.60;;
20095;SDS011;10207;50.942;6.900;2022-07-06T12:27:58;3.22;;;0.38;;
20095;SDS011;10207;50.942;6.900;2022-07-06T12:30:24;1.48;;;0.32;;
20095;SDS011;10207;50.942;6.900;2022-07-06T12:35:34;1.80;;;0.50;;
20095;SDS011;10207;50.942;6.900;2022-07-06T12:38:00;4.30;;;0.70;;
20095;SDS011;10207;50.942;6.900;2022-07-06T12:40:26;3.45;;;1.02;;
20095;SDS011;10207;50.942;6.900;2022-07-06T12:42:53;3.60;;;0.85;;
20095;SDS011;10207;50.942;6.900;2022-07-06T12:45:19;2.55;;;0.63;;
20095;SDS011;10207;50.942;6.900;2022-07-06T12:48:01;1.58;;;0.50;;
20095;SDS011;10207;50.942;6.900;2022-07-06T12:50:31;2.25;;;0.60;;
20095;SDS011;10207;50.942;6.900;2022-07-06T12:52:58;3.80;;;0.68;;
20095;SDS011;10207;50.942;6.900;2022-07-06T12:55:27;2.88;;;0.43;;
20095;SDS011;10207;50.942;6.900;2022-07-06T12:57:56;5.90;;;0.73;;
20095;SDS011;10207;50.942;6.900;2022-07-06T13:00:22;4.22;;;0.50;;
20095;SDS011;10207;50.942;6.900;2022-07-06T13:02:49;4.82;;;0.95;;
20095;SDS011;10207;50.942;6.900;2022-07-06T13:05:23;4.30;;;0.63;;
20095;SDS011;10207;50.942;6.900;2022-07-06T13:07:53;4.45;;;0.88;;
20095;SDS011;10207;50.942;6.900;2022-07-06T13:10:20;4.15;;;0.63;;
20095;SDS011;10207;50.942;6.900;2022-07-06T13:12:45;3.08;;;0.40;;
20095;SDS011;10207;50.942;6.900;2022-07-06T13:15:11;1.55;;;0.38;;
20095;SDS011;10207;50.942;6.900;2022-07-06T13:17:37;17.25;;;1.08;;
20095;SDS011;10207;50.942;6.900;2022-07-06T13:20:04;7.15;;;0.50;;
20095;SDS011;10207;50.942;6.900;2022-07-06T13:22:30;4.05;;;0.60;;
20095;SDS011;10207;50.942;6.900;2022-07-06T13:24:56;4.20;;;0.73;;
20095;SDS011;10207;50.942;6.900;2022-07-06T13:27:22;9.18;;;1.25;;
20095;SDS011;10207;50.942;6.900;2022-07-06T13:29:47;2.30;;;0.80;;
20095;SDS011;10207;50.942;6.900;2022-07-06T13:32:13;3.13;;;0.70;;
20095;SDS011;10207;50.942;6.900;2022-07-06T13:34:39;2.70;;;0.60;;
20095;SDS011;10207;50.942;6.900;2022-07-06T13:37:05;6.00;;;0.50;;
20095;SDS011;10207;50.942;6.900;2022-07-06T13:39:31;5.20;;;1.00;;
20095;SDS011;10207;50.942;6.900;2022-07-06T13:41:57;1.63;;;0.47;;
20095;SDS011;10207;50.942;6.900;2022-07-06T13:44:23;2.67;;;1.05;;
20095;SDS011;10207;50.942;6.900;2022-07-06T13:46:49;2.88;;;0.73;;
20095;SDS011;10207;50.942;6.900;2022-07-06T13:49:14;3.60;;;0.95;;
20095;SDS011;10207;50.942;6.900;2022-07-06T13:51:40;2.45;;;0.45;;
20095;SDS011;10207;50.942;6.900;2022-07-06T13:54:07;2.60;;;0.50;;
20095;SDS011;10207;50.942;6.900;2022-07-06T13:56:32;3.42;;;0.50;;
20095;SDS011;10207;50.942;6.900;2022-07-06T13:58:58;2.97;;;0.73;;
20095;SDS011;10207;50.942;6.900;2022-07-06T14:01:24;1.52;;;0.50;;
20095;SDS011;10207;50.942;6.900;2022-07-06T14:03:50;2.10;;;0.50;;
20095;SDS011;10207;50.942;6.900;2022-07-06T14:06:16;3.03;;;0.60;;
20095;SDS011;10207;50.942;6.900;2022-07-06T14:08:42;2.92;;;0.30;;
20095;SDS011;10207;50.942;6.900;2022-07-06T14:11:08;4.70;;;0.55;;
20095;SDS011;10207;50.942;6.900;2022-07-06T14:13:35;2.45;;;0.68;;
20095;SDS011;10207;50.942;6.900;2022-07-06T14:16:01;5.25;;;1.00;;
20095;SDS011;10207;50.942;6.900;2022-07-06T14:18:27;1.67;;;0.45;;
20095;SDS011;10207;50.942;6.900;2022-07-06T14:20:53;4.70;;;1.10;;
20095;SDS011;10207;50.942;6.900;2022-07-06T14:23:19;2.05;;;0.70;;
20095;SDS011;10207;50.942;6.900;2022-07-06T14:25:45;2.00;;;0.40;;
20095;SDS011;10207;50.942;6.900;2022-07-06T14:28:11;1.80;;;0.60;;
20095;SDS011;10207;50.942;6.900;2022-07-06T14:30:40;2.40;;;0.55;;
20095;SDS011;10207;50.942;6.900;2022-07-06T14:33:07;6.80;;;0.80;;
20095;SDS011;10207;50.942;6.900;2022-07-06T14:35:34;4.43;;;0.63;;
20095;SDS011;10207;50.942;6.900;2022-07-06T14:38:00;1.95;;;0.63;;
20095;SDS011;10207;50.942;6.900;2022-07-06T14:40:27;1.67;;;0.60;;
20095;SDS011;10207;50.942;6.900;2022-07-06T14:42:52;2.50;;;0.57;;
20095;SDS011;10207;50.942;6.900;2022-07-06T14:45:18;1.92;;;0.47;;
20095;SDS011;10207;50.942;6.900;2022-07-06T14:47:44;3.30;;;0.55;;
20095;SDS011;10207;50.942;6.900;2022-07-06T14:50:10;1.88;;;0.50;;
20095;SDS011;10207;50.942;6.900;2022-07-06T14:52:36;2.08;;;0.52;;
20095;SDS011;10207;50.942;6.900;2022-07-06T14:55:02;2.40;;;0.50;;
20095;SDS011;10207;50.942;6.900;2022-07-06T14:57:27;1.88;;;0.43;;
20095;SDS011;10207;50.942;6.900;2022-07-06T14:59:53;4.78;;;0.57;;
20095;SDS011;10207;50.942;6.900;2022-07-06T15:02:19;3.33;;;0.70;;
20095;SDS011;10207;50.942;6.900;2022-07-06T15:04:44;3.42;;;0.40;;
20095;SDS011;10207;50.942;6.900;2022-07-06T15:07:10;1.80;;;0.63;;